Terminal Aerodrome Forecast
Issued by NWS

Home | Current Version | Previous Version | Text Only | Print | Product List | Glossary On
Versions: 1 2 3 4 5 6 7 8 9 10 11 12 13
000
FTUS43 KFGF 222331
TAFDVL
TAF
KDVL 222331Z 2300/2324 17009KT P6SM FEW080
     FM231300 18007KT P6SM SCT070 BKN250
     FM231800 19008G16KT P6SM SCT050 BKN100
     FM232200 18010G20KT P6SM VCTS BKN050CB
      AMD LTD TO CLD VIS AND WIND=

USA.gov is the U.S. government's official web portal to all federal, state and local government web resources and services.